sensor_id;sensor_type;location;lat;lon;timestamp;temperature;humidity
22173;DHT22;11252;50.596;17.648;2023-11-21T00:00:22;8.20;92.20
22173;DHT22;11252;50.596;17.648;2023-11-21T00:02:49;8.20;92.20
22173;DHT22;11252;50.596;17.648;2023-11-21T00:05:16;8.20;92.20
22173;DHT22;11252;50.596;17.648;2023-11-21T00:07:43;8.20;92.20
22173;DHT22;11252;50.596;17.648;2023-11-21T00:10:12;8.20;92.20
22173;DHT22;11252;50.596;17.648;2023-11-21T00:12:41;8.20;92.20
22173;DHT22;11252;50.596;17.648;2023-11-21T00:15:09;8.20;92.20
22173;DHT22;11252;50.596;17.648;2023-11-21T00:17:40;8.20;92.20
22173;DHT22;11252;50.596;17.648;2023-11-21T00:20:08;8.20;92.20
22173;DHT22;11252;50.596;17.648;2023-11-21T00:22:35;8.20;92.20
22173;DHT22;11252;50.596;17.648;2023-11-21T00:25:03;8.20;92.20
22173;DHT22;11252;50.596;17.648;2023-11-21T00:27:33;8.20;92.20
22173;DHT22;11252;50.596;17.648;2023-11-21T00:30:00;8.20;92.20
22173;DHT22;11252;50.596;17.648;2023-11-21T00:32:27;8.20;92.20
22173;DHT22;11252;50.596;17.648;2023-11-21T00:34:55;8.20;92.20
22173;DHT22;11252;50.596;17.648;2023-11-21T00:37:22;8.20;92.20
22173;DHT22;11252;50.596;17.648;2023-11-21T00:39:51;8.10;92.20
22173;DHT22;11252;50.596;17.648;2023-11-21T00:42:18;8.10;92.20
22173;DHT22;11252;50.596;17.648;2023-11-21T00:44:45;8.10;92.20
22173;DHT22;11252;50.596;17.648;2023-11-21T00:47:12;8.10;92.20
22173;DHT22;11252;50.596;17.648;2023-11-21T00:49:40;8.10;92.20
22173;DHT22;11252;50.596;17.648;2023-11-21T00:52:07;8.10;92.20
22173;DHT22;11252;50.596;17.648;2023-11-21T00:54:34;8.10;92.20
22173;DHT22;11252;50.596;17.648;2023-11-21T00:57:01;8.10;92.20
22173;DHT22;11252;50.596;17.648;2023-11-21T00:59:29;8.10;92.20
22173;DHT22;11252;50.596;17.648;2023-11-21T01:01:56;8.10;92.20
22173;DHT22;11252;50.596;17.648;2023-11-21T01:04:27;8.10;92.20
22173;DHT22;11252;50.596;17.648;2023-11-21T01:06:54;8.10;92.20
22173;DHT22;11252;50.596;17.648;2023-11-21T01:09:21;8.20;92.20
22173;DHT22;11252;50.596;17.648;2023-11-21T01:11:48;8.20;92.20
22173;DHT22;11252;50.596;17.648;2023-11-21T01:14:16;8.10;92.20
22173;DHT22;11252;50.596;17.648;2023-11-21T01:16:44;8.20;92.20
22173;DHT22;11252;50.596;17.648;2023-11-21T01:19:12;8.10;92.20
22173;DHT22;11252;50.596;17.648;2023-11-21T01:21:39;8.10;92.20
22173;DHT22;11252;50.596;17.648;2023-11-21T01:24:06;8.10;92.20
22173;DHT22;11252;50.596;17.648;2023-11-21T01:26:34;8.10;92.20
22173;DHT22;11252;50.596;17.648;2023-11-21T01:29:01;8.10;92.20
22173;DHT22;11252;50.596;17.648;2023-11-21T01:31:28;8.00;92.20
22173;DHT22;11252;50.596;17.648;2023-11-21T01:33:57;8.00;92.20
22173;DHT22;11252;50.596;17.648;2023-11-21T01:36:30;8.00;92.20
22173;DHT22;11252;50.596;17.648;2023-11-21T01:38:59;8.00;92.20
22173;DHT22;11252;50.596;17.648;2023-11-21T01:41:27;8.00;92.20
22173;DHT22;11252;50.596;17.648;2023-11-21T01:43:56;8.00;92.20
22173;DHT22;11252;50.596;17.648;2023-11-21T01:46:24;8.00;92.20
22173;DHT22;11252;50.596;17.648;2023-11-21T01:48:51;7.90;92.20
22173;DHT22;11252;50.596;17.648;2023-11-21T01:51:20;7.90;92.20
22173;DHT22;11252;50.596;17.648;2023-11-21T01:53:47;8.00;92.20
22173;DHT22;11252;50.596;17.648;2023-11-21T01:56:14;8.00;92.20
22173;DHT22;11252;50.596;17.648;2023-11-21T01:58:42;8.00;92.20
22173;DHT22;11252;50.596;17.648;2023-11-21T02:01:10;7.90;92.20
22173;DHT22;11252;50.596;17.648;2023-11-21T02:03:37;7.90;92.20
22173;DHT22;11252;50.596;17.648;2023-11-21T02:06:05;7.90;92.20
22173;DHT22;11252;50.596;17.648;2023-11-21T02:08:32;7.90;92.20
22173;DHT22;11252;50.596;17.648;2023-11-21T02:10:59;7.90;92.20
22173;DHT22;11252;50.596;17.648;2023-11-21T02:13:26;8.00;92.20
22173;DHT22;11252;50.596;17.648;2023-11-21T02:15:54;8.00;92.20
22173;DHT22;11252;50.596;17.648;2023-11-21T02:18:21;8.10;92.20
22173;DHT22;11252;50.596;17.648;2023-11-21T02:20:51;8.10;92.20
22173;DHT22;11252;50.596;17.648;2023-11-21T02:23:18;8.10;92.20
22173;DHT22;11252;50.596;17.648;2023-11-21T02:25:45;8.10;92.20
22173;DHT22;11252;50.596;17.648;2023-11-21T02:28:13;8.00;92.20
22173;DHT22;11252;50.596;17.648;2023-11-21T02:30:42;8.00;92.20
22173;DHT22;11252;50.596;17.648;2023-11-21T02:33:10;8.00;92.20
22173;DHT22;11252;50.596;17.648;2023-11-21T02:35:39;8.00;92.20
22173;DHT22;11252;50.596;17.648;2023-11-21T02:38:06;8.00;92.20
22173;DHT22;11252;50.596;17.648;2023-11-21T02:40:33;8.00;92.20
22173;DHT22;11252;50.596;17.648;2023-11-21T02:43:01;8.10;92.20
22173;DHT22;11252;50.596;17.648;2023-11-21T02:45:28;8.10;92.20
22173;DHT22;11252;50.596;17.648;2023-11-21T02:47:55;8.20;92.20
22173;DHT22;11252;50.596;17.648;2023-11-21T02:50:25;8.20;92.20
22173;DHT22;11252;50.596;17.648;2023-11-21T02:52:52;8.20;92.20
22173;DHT22;11252;50.596;17.648;2023-11-21T02:55:19;8.10;92.20
22173;DHT22;11252;50.596;17.648;2023-11-21T02:57:46;8.20;92.20
22173;DHT22;11252;50.596;17.648;2023-11-21T03:00:14;8.30;92.20
22173;DHT22;11252;50.596;17.648;2023-11-21T03:02:42;8.30;92.20
22173;DHT22;11252;50.596;17.648;2023-11-21T03:05:10;8.30;92.20
22173;DHT22;11252;50.596;17.648;2023-11-21T03:07:38;8.30;92.20
22173;DHT22;11252;50.596;17.648;2023-11-21T03:10:09;8.30;92.20
22173;DHT22;11252;50.596;17.648;2023-11-21T03:12:38;8.20;92.20
22173;DHT22;11252;50.596;17.648;2023-11-21T03:15:06;8.20;92.20
22173;DHT22;11252;50.596;17.648;2023-11-21T03:17:34;8.20;92.20
22173;DHT22;11252;50.596;17.648;2023-11-21T03:20:02;8.20;92.20
22173;DHT22;11252;50.596;17.648;2023-11-21T03:22:30;8.20;92.20
22173;DHT22;11252;50.596;17.648;2023-11-21T03:24:58;8.20;92.20
22173;DHT22;11252;50.596;17.648;2023-11-21T03:27:25;8.20;92.20
22173;DHT22;11252;50.596;17.648;2023-11-21T03:29:53;8.20;92.20
22173;DHT22;11252;50.596;17.648;2023-11-21T03:32:21;8.20;92.20
22173;DHT22;11252;50.596;17.648;2023-11-21T03:34:57;8.10;92.20
22173;DHT22;11252;50.596;17.648;2023-11-21T03:37:26;8.10;92.20
22173;DHT22;11252;50.596;17.648;2023-11-21T03:39:58;8.10;92.20
22173;DHT22;11252;50.596;17.648;2023-11-21T03:42:25;8.20;92.20
22173;DHT22;11252;50.596;17.648;2023-11-21T03:44:53;8.20;92.20
22173;DHT22;11252;50.596;17.648;2023-11-21T03:47:21;8.20;92.20
22173;DHT22;11252;50.596;17.648;2023-11-21T03:49:48;8.20;92.20
22173;DHT22;11252;50.596;17.648;2023-11-21T03:52:16;8.20;92.20
22173;DHT22;11252;50.596;17.648;2023-11-21T03:54:43;8.10;92.20
22173;DHT22;11252;50.596;17.648;2023-11-21T03:57:11;8.10;92.20
22173;DHT22;11252;50.596;17.648;2023-11-21T03:59:42;8.10;92.20
22173;DHT22;11252;50.596;17.648;2023-11-21T04:02:09;8.10;92.20
22173;DHT22;11252;50.596;17.648;2023-11-21T04:04:36;8.20;92.20
22173;DHT22;11252;50.596;17.648;2023-11-21T04:07:04;8.20;92.20
22173;DHT22;11252;50.596;17.648;2023-11-21T04:09:31;8.10;92.20
22173;DHT22;11252;50.596;17.648;2023-11-21T04:11:58;8.10;92.20
22173;DHT22;11252;50.596;17.648;2023-11-21T04:14:26;8.10;92.20
22173;DHT22;11252;50.596;17.648;2023-11-21T04:16:53;8.20;92.20
22173;DHT22;11252;50.596;17.648;2023-11-21T04:19:25;8.10;92.20
22173;DHT22;11252;50.596;17.648;2023-11-21T04:21:52;8.10;92.20
22173;DHT22;11252;50.596;17.648;2023-11-21T04:24:20;8.00;92.20
22173;DHT22;11252;50.596;17.648;2023-11-21T04:26:47;8.00;92.20
22173;DHT22;11252;50.596;17.648;2023-11-21T04:29:16;8.00;92.20
22173;DHT22;11252;50.596;17.648;2023-11-21T04:31:47;7.90;92.20
22173;DHT22;11252;50.596;17.648;2023-11-21T04:34:16;7.90;92.20
22173;DHT22;11252;50.596;17.648;2023-11-21T04:36:43;7.90;92.20
22173;DHT22;11252;50.596;17.648;2023-11-21T04:39:10;7.90;92.20
22173;DHT22;11252;50.596;17.648;2023-11-21T04:41:44;7.90;92.20
22173;DHT22;11252;50.596;17.648;2023-11-21T04:44:11;7.90;92.20
22173;DHT22;11252;50.596;17.648;2023-11-21T04:46:38;7.90;92.20
22173;DHT22;11252;50.596;17.648;2023-11-21T04:49:05;7.90;92.20
22173;DHT22;11252;50.596;17.648;2023-11-21T04:51:32;7.90;92.20
22173;DHT22;11252;50.596;17.648;2023-11-21T04:53:59;7.90;92.20
22173;DHT22;11252;50.596;17.648;2023-11-21T04:56:26;7.90;92.20
22173;DHT22;11252;50.596;17.648;2023-11-21T04:58:54;8.00;92.20
22173;DHT22;11252;50.596;17.648;2023-11-21T05:01:21;8.10;92.20
22173;DHT22;11252;50.596;17.648;2023-11-21T05:03:48;8.00;92.20
22173;DHT22;11252;50.596;17.648;2023-11-21T05:06:15;7.90;92.20
22173;DHT22;11252;50.596;17.648;2023-11-21T05:08:43;7.90;92.20
22173;DHT22;11252;50.596;17.648;2023-11-21T05:11:10;7.80;92.20
22173;DHT22;11252;50.596;17.648;2023-11-21T05:13:37;7.80;92.20
22173;DHT22;11252;50.596;17.648;2023-11-21T05:16:07;7.80;92.20
22173;DHT22;11252;50.596;17.648;2023-11-21T05:18:37;7.80;92.20
22173;DHT22;11252;50.596;17.648;2023-11-21T05:21:04;7.90;92.20
22173;DHT22;11252;50.596;17.648;2023-11-21T05:23:31;7.80;92.20
22173;DHT22;11252;50.596;17.648;2023-11-21T05:25:58;7.80;92.20
22173;DHT22;11252;50.596;17.648;2023-11-21T05:28:26;7.80;92.20
22173;DHT22;11252;50.596;17.648;2023-11-21T05:30:53;7.80;92.20
22173;DHT22;11252;50.596;17.648;2023-11-21T05:33:41;7.80;92.20
22173;DHT22;11252;50.596;17.648;2023-11-21T05:36:08;7.80;92.20
22173;DHT22;11252;50.596;17.648;2023-11-21T05:38:37;7.80;92.20
22173;DHT22;11252;50.596;17.648;2023-11-21T05:41:04;7.80;92.20
22173;DHT22;11252;50.596;17.648;2023-11-21T05:43:31;7.90;92.20
22173;DHT22;11252;50.596;17.648;2023-11-21T05:45:59;7.90;92.20
22173;DHT22;11252;50.596;17.648;2023-11-21T05:48:26;7.80;92.20
22173;DHT22;11252;50.596;17.648;2023-11-21T05:50:53;7.70;92.20
22173;DHT22;11252;50.596;17.648;2023-11-21T05:53:20;7.70;92.20
22173;DHT22;11252;50.596;17.648;2023-11-21T05:55:48;7.60;92.20
22173;DHT22;11252;50.596;17.648;2023-11-21T05:58:15;7.70;92.20
22173;DHT22;11252;50.596;17.648;2023-11-21T06:00:43;7.60;92.20
22173;DHT22;11252;50.596;17.648;2023-11-21T06:03:10;7.60;92.20
22173;DHT22;11252;50.596;17.648;2023-11-21T06:05:37;7.60;92.20
22173;DHT22;11252;50.596;17.648;2023-11-21T06:08:04;7.60;92.20
22173;DHT22;11252;50.596;17.648;2023-11-21T06:10:33;7.60;92.20
22173;DHT22;11252;50.596;17.648;2023-11-21T06:13:01;7.50;92.20
22173;DHT22;11252;50.596;17.648;2023-11-21T06:15:30;7.50;92.20
22173;DHT22;11252;50.596;17.648;2023-11-21T06:17:57;7.50;92.20
22173;DHT22;11252;50.596;17.648;2023-11-21T06:20:27;7.50;92.20
22173;DHT22;11252;50.596;17.648;2023-11-21T06:22:54;7.50;92.20
22173;DHT22;11252;50.596;17.648;2023-11-21T06:25:22;7.60;92.20
22173;DHT22;11252;50.596;17.648;2023-11-21T06:27:50;7.60;92.20
22173;DHT22;11252;50.596;17.648;2023-11-21T06:30:20;7.60;92.20
22173;DHT22;11252;50.596;17.648;2023-11-21T06:32:48;7.60;92.20
22173;DHT22;11252;50.596;17.648;2023-11-21T06:35:15;7.70;92.20
22173;DHT22;11252;50.596;17.648;2023-11-21T06:37:44;7.70;92.20
22173;DHT22;11252;50.596;17.648;2023-11-21T06:40:17;7.70;92.20
22173;DHT22;11252;50.596;17.648;2023-11-21T06:42:46;7.70;92.20
22173;DHT22;11252;50.596;17.648;2023-11-21T06:45:14;7.70;92.20
22173;DHT22;11252;50.596;17.648;2023-11-21T06:47:42;7.80;92.20
22173;DHT22;11252;50.596;17.648;2023-11-21T06:50:09;7.90;92.20
22173;DHT22;11252;50.596;17.648;2023-11-21T06:52:37;7.90;92.20
22173;DHT22;11252;50.596;17.648;2023-11-21T06:55:04;7.90;92.20
22173;DHT22;11252;50.596;17.648;2023-11-21T06:57:31;7.90;92.20
22173;DHT22;11252;50.596;17.648;2023-11-21T06:59:59;7.90;92.20
22173;DHT22;11252;50.596;17.648;2023-11-21T07:02:27;7.90;92.20
22173;DHT22;11252;50.596;17.648;2023-11-21T07:04:59;7.90;92.20
22173;DHT22;11252;50.596;17.648;2023-11-21T07:07:29;7.90;92.20
22173;DHT22;11252;50.596;17.648;2023-11-21T07:09:57;7.90;92.20
22173;DHT22;11252;50.596;17.648;2023-11-21T07:12:24;7.90;92.20
22173;DHT22;11252;50.596;17.648;2023-11-21T07:14:52;8.00;92.20
22173;DHT22;11252;50.596;17.648;2023-11-21T07:17:20;8.00;92.20
22173;DHT22;11252;50.596;17.648;2023-11-21T07:19:49;8.10;92.20
22173;DHT22;11252;50.596;17.648;2023-11-21T07:22:17;8.10;92.20
22173;DHT22;11252;50.596;17.648;2023-11-21T07:27:18;8.20;92.20
22173;DHT22;11252;50.596;17.648;2023-11-21T07:29:45;8.30;92.20
22173;DHT22;11252;50.596;17.648;2023-11-21T07:32:12;8.30;92.20
22173;DHT22;11252;50.596;17.648;2023-11-21T07:34:41;8.40;92.20
22173;DHT22;11252;50.596;17.648;2023-11-21T07:37:11;8.40;92.20
22173;DHT22;11252;50.596;17.648;2023-11-21T07:39:38;8.50;92.20
22173;DHT22;11252;50.596;17.648;2023-11-21T07:42:09;8.60;92.20
22173;DHT22;11252;50.596;17.648;2023-11-21T07:44:37;8.60;92.20
22173;DHT22;11252;50.596;17.648;2023-11-21T07:47:04;8.60;92.20
22173;DHT22;11252;50.596;17.648;2023-11-21T07:49:32;8.70;92.20
22173;DHT22;11252;50.596;17.648;2023-11-21T07:51:59;8.70;92.20
22173;DHT22;11252;50.596;17.648;2023-11-21T07:54:26;8.70;92.20
22173;DHT22;11252;50.596;17.648;2023-11-21T07:56:53;8.70;92.20
22173;DHT22;11252;50.596;17.648;2023-11-21T07:59:20;8.80;92.20
22173;DHT22;11252;50.596;17.648;2023-11-21T08:01:49;8.80;92.20
22173;DHT22;11252;50.596;17.648;2023-11-21T08:04:17;8.80;92.20
22173;DHT22;11252;50.596;17.648;2023-11-21T08:06:45;8.80;92.20
22173;DHT22;11252;50.596;17.648;2023-11-21T08:09:12;8.90;92.20
22173;DHT22;11252;50.596;17.648;2023-11-21T08:11:39;8.90;92.20
22173;DHT22;11252;50.596;17.648;2023-11-21T08:14:06;8.80;92.20
22173;DHT22;11252;50.596;17.648;2023-11-21T08:16:34;8.80;92.20
22173;DHT22;11252;50.596;17.648;2023-11-21T08:19:01;8.80;92.20
22173;DHT22;11252;50.596;17.648;2023-11-21T08:39:41;9.10;92.20
22173;DHT22;11252;50.596;17.648;2023-11-21T08:42:08;9.20;92.20
22173;DHT22;11252;50.596;17.648;2023-11-21T08:44:35;9.30;92.20
22173;DHT22;11252;50.596;17.648;2023-11-21T08:47:03;9.40;92.20
22173;DHT22;11252;50.596;17.648;2023-11-21T08:49:35;9.40;92.20
22173;DHT22;11252;50.596;17.648;2023-11-21T08:52:02;9.40;92.20
22173;DHT22;11252;50.596;17.648;2023-11-21T08:54:29;9.40;92.20
22173;DHT22;11252;50.596;17.648;2023-11-21T08:56:57;9.40;92.20
22173;DHT22;11252;50.596;17.648;2023-11-21T08:59:25;9.50;92.20
22173;DHT22;11252;50.596;17.648;2023-11-21T09:01:53;9.40;92.20
22173;DHT22;11252;50.596;17.648;2023-11-21T09:04:20;9.40;92.20
22173;DHT22;11252;50.596;17.648;2023-11-21T09:06:47;9.40;92.20
22173;DHT22;11252;50.596;17.648;2023-11-21T09:09:14;9.40;92.20
22173;DHT22;11252;50.596;17.648;2023-11-21T09:11:41;9.40;92.20
22173;DHT22;11252;50.596;17.648;2023-11-21T09:14:08;9.40;92.20
22173;DHT22;11252;50.596;17.648;2023-11-21T09:16:37;9.40;92.20
22173;DHT22;11252;50.596;17.648;2023-11-21T09:19:05;9.30;92.20
22173;DHT22;11252;50.596;17.648;2023-11-21T09:21:32;9.20;92.20
22173;DHT22;11252;50.596;17.648;2023-11-21T09:24:01;9.20;92.20
22173;DHT22;11252;50.596;17.648;2023-11-21T09:26:29;9.20;92.20
22173;DHT22;11252;50.596;17.648;2023-11-21T09:28:56;9.20;92.20
22173;DHT22;11252;50.596;17.648;2023-11-21T09:31:24;9.10;92.20
22173;DHT22;11252;50.596;17.648;2023-11-21T09:33:51;9.10;92.20
22173;DHT22;11252;50.596;17.648;2023-11-21T09:36:18;9.10;92.20
22173;DHT22;11252;50.596;17.648;2023-11-21T09:38:45;9.10;92.20
22173;DHT22;11252;50.596;17.648;2023-11-21T09:44:36;9.10;92.20
22173;DHT22;11252;50.596;17.648;2023-11-21T09:47:07;9.10;92.20
22173;DHT22;11252;50.596;17.648;2023-11-21T09:49:38;9.10;92.20
22173;DHT22;11252;50.596;17.648;2023-11-21T09:52:11;9.10;92.20
22173;DHT22;11252;50.596;17.648;2023-11-21T09:54:45;9.10;92.20
22173;DHT22;11252;50.596;17.648;2023-11-21T09:57:12;9.00;92.20
22173;DHT22;11252;50.596;17.648;2023-11-21T09:59:41;9.00;92.20
22173;DHT22;11252;50.596;17.648;2023-11-21T10:02:09;8.90;92.20
22173;DHT22;11252;50.596;17.648;2023-11-21T10:04:40;8.90;92.20
22173;DHT22;11252;50.596;17.648;2023-11-21T10:07:07;8.90;92.20
22173;DHT22;11252;50.596;17.648;2023-11-21T10:09:47;8.90;92.20
22173;DHT22;11252;50.596;17.648;2023-11-21T10:12:17;8.90;92.20
22173;DHT22;11252;50.596;17.648;2023-11-21T10:14:48;8.80;92.20
22173;DHT22;11252;50.596;17.648;2023-11-21T10:17:17;8.90;92.20
22173;DHT22;11252;50.596;17.648;2023-11-21T10:19:48;8.90;92.20
22173;DHT22;11252;50.596;17.648;2023-11-21T10:22:15;8.90;92.20
22173;DHT22;11252;50.596;17.648;2023-11-21T10:24:43;8.80;92.20
22173;DHT22;11252;50.596;17.648;2023-11-21T10:27:19;8.90;92.20
22173;DHT22;11252;50.596;17.648;2023-11-21T10:29:46;8.80;92.20
22173;DHT22;11252;50.596;17.648;2023-11-21T10:32:13;8.80;92.20
22173;DHT22;11252;50.596;17.648;2023-11-21T10:34:41;8.80;92.20
22173;DHT22;11252;50.596;17.648;2023-11-21T10:37:12;8.80;92.20
22173;DHT22;11252;50.596;17.648;2023-11-21T10:39:40;8.80;92.20
22173;DHT22;11252;50.596;17.648;2023-11-21T10:42:12;8.80;92.20
22173;DHT22;11252;50.596;17.648;2023-11-21T10:44:41;8.80;92.20
22173;DHT22;11252;50.596;17.648;2023-11-21T10:47:11;8.70;92.20
22173;DHT22;11252;50.596;17.648;2023-11-21T10:49:39;8.70;92.20
22173;DHT22;11252;50.596;17.648;2023-11-21T10:52:07;8.70;92.20
22173;DHT22;11252;50.596;17.648;2023-11-21T10:54:34;8.70;92.20
22173;DHT22;11252;50.596;17.648;2023-11-21T10:57:03;8.70;92.20
22173;DHT22;11252;50.596;17.648;2023-11-21T10:59:31;8.70;92.20
22173;DHT22;11252;50.596;17.648;2023-11-21T11:02:01;8.70;92.20
22173;DHT22;11252;50.596;17.648;2023-11-21T11:04:31;8.70;92.20
22173;DHT22;11252;50.596;17.648;2023-11-21T11:07:02;8.80;92.20
22173;DHT22;11252;50.596;17.648;2023-11-21T11:09:32;8.70;92.20
22173;DHT22;11252;50.596;17.648;2023-11-21T11:12:04;8.70;92.20
22173;DHT22;11252;50.596;17.648;2023-11-21T11:14:32;8.80;92.20
22173;DHT22;11252;50.596;17.648;2023-11-21T11:17:00;8.80;92.20
22173;DHT22;11252;50.596;17.648;2023-11-21T11:19:28;8.80;92.20
22173;DHT22;11252;50.596;17.648;2023-11-21T11:22:00;8.90;92.20
22173;DHT22;11252;50.596;17.648;2023-11-21T11:37:53;9.00;92.20
22173;DHT22;11252;50.596;17.648;2023-11-21T11:40:22;9.00;92.20
22173;DHT22;11252;50.596;17.648;2023-11-21T11:45:32;8.90;92.20
22173;DHT22;11252;50.596;17.648;2023-11-21T11:48:01;8.90;92.20
22173;DHT22;11252;50.596;17.648;2023-11-21T11:50:29;8.90;92.20
22173;DHT22;11252;50.596;17.648;2023-11-21T11:52:57;8.90;92.20
22173;DHT22;11252;50.596;17.648;2023-11-21T11:55:38;8.90;92.20
22173;DHT22;11252;50.596;17.648;2023-11-21T11:58:06;8.90;92.20
22173;DHT22;11252;50.596;17.648;2023-11-21T12:00:34;8.90;92.20
22173;DHT22;11252;50.596;17.648;2023-11-21T12:03:06;8.80;92.20
22173;DHT22;11252;50.596;17.648;2023-11-21T12:05:36;8.80;92.20
22173;DHT22;11252;50.596;17.648;2023-11-21T12:08:07;8.80;92.20
22173;DHT22;11252;50.596;17.648;2023-11-21T12:10:35;8.80;92.20
22173;DHT22;11252;50.596;17.648;2023-11-21T12:13:07;8.80;92.20
22173;DHT22;11252;50.596;17.648;2023-11-21T12:15:35;8.80;92.20
22173;DHT22;11252;50.596;17.648;2023-11-21T12:18:03;8.80;92.20
22173;DHT22;11252;50.596;17.648;2023-11-21T12:20:31;8.80;92.20
22173;DHT22;11252;50.596;17.648;2023-11-21T12:23:00;8.80;92.20
22173;DHT22;11252;50.596;17.648;2023-11-21T12:27:56;8.70;92.20
22173;DHT22;11252;50.596;17.648;2023-11-21T12:30:26;8.70;92.20
22173;DHT22;11252;50.596;17.648;2023-11-21T12:32:56;8.70;92.20
22173;DHT22;11252;50.596;17.648;2023-11-21T12:35:26;8.70;92.20
22173;DHT22;11252;50.596;17.648;2023-11-21T12:37:55;8.70;92.20
22173;DHT22;11252;50.596;17.648;2023-11-21T12:40:26;8.60;92.20
22173;DHT22;11252;50.596;17.648;2023-11-21T12:42:56;8.60;92.20
22173;DHT22;11252;50.596;17.648;2023-11-21T12:45:25;8.60;92.20
22173;DHT22;11252;50.596;17.648;2023-11-21T12:48:00;8.70;92.20
22173;DHT22;11252;50.596;17.648;2023-11-21T12:50:31;8.70;92.20
22173;DHT22;11252;50.596;17.648;2023-11-21T12:53:09;8.70;92.20
22173;DHT22;11252;50.596;17.648;2023-11-21T12:55:39;8.60;92.20
22173;DHT22;11252;50.596;17.648;2023-11-21T12:58:08;8.60;92.20
22173;DHT22;11252;50.596;17.648;2023-11-21T13:03:12;8.70;92.20
22173;DHT22;11252;50.596;17.648;2023-11-21T13:05:44;8.60;92.20
22173;DHT22;11252;50.596;17.648;2023-11-21T13:08:16;8.60;92.20
22173;DHT22;11252;50.596;17.648;2023-11-21T13:10:50;8.70;92.20
22173;DHT22;11252;50.596;17.648;2023-11-21T13:13:18;8.70;92.20
22173;DHT22;11252;50.596;17.648;2023-11-21T13:18:17;8.60;92.20
22173;DHT22;11252;50.596;17.648;2023-11-21T13:20:44;8.60;92.20
22173;DHT22;11252;50.596;17.648;2023-11-21T13:23:12;8.60;92.20
22173;DHT22;11252;50.596;17.648;2023-11-21T13:25:39;8.70;92.20
22173;DHT22;11252;50.596;17.648;2023-11-21T13:28:08;8.60;92.20
22173;DHT22;11252;50.596;17.648;2023-11-21T13:30:40;8.60;92.20
22173;DHT22;11252;50.596;17.648;2023-11-21T13:33:08;8.50;92.20
22173;DHT22;11252;50.596;17.648;2023-11-21T13:35:39;8.50;92.20
22173;DHT22;11252;50.596;17.648;2023-11-21T13:38:11;8.40;92.20
22173;DHT22;11252;50.596;17.648;2023-11-21T13:40:40;8.40;92.20
22173;DHT22;11252;50.596;17.648;2023-11-21T13:45:43;8.30;92.20
22173;DHT22;11252;50.596;17.648;2023-11-21T13:48:13;8.30;92.20
22173;DHT22;11252;50.596;17.648;2023-11-21T13:50:46;8.20;92.20
22173;DHT22;11252;50.596;17.648;2023-11-21T13:53:25;8.10;92.20
22173;DHT22;11252;50.596;17.648;2023-11-21T13:55:53;8.10;92.20
22173;DHT22;11252;50.596;17.648;2023-11-21T13:58:21;8.00;92.20
22173;DHT22;11252;50.596;17.648;2023-11-21T14:01:07;7.90;92.20
22173;DHT22;11252;50.596;17.648;2023-11-21T14:03:52;7.80;92.20
22173;DHT22;11252;50.596;17.648;2023-11-21T14:06:24;7.70;92.20
22173;DHT22;11252;50.596;17.648;2023-11-21T14:09:00;7.60;92.20
22173;DHT22;11252;50.596;17.648;2023-11-21T14:11:32;7.50;92.20
22173;DHT22;11252;50.596;17.648;2023-11-21T14:14:09;7.50;92.20
22173;DHT22;11252;50.596;17.648;2023-11-21T14:16:37;7.50;92.20
22173;DHT22;11252;50.596;17.648;2023-11-21T14:19:03;7.50;92.20
22173;DHT22;11252;50.596;17.648;2023-11-21T14:21:43;7.40;92.20
22173;DHT22;11252;50.596;17.648;2023-11-21T14:24:14;7.40;92.20
22173;DHT22;11252;50.596;17.648;2023-11-21T14:26:47;7.40;92.20
22173;DHT22;11252;50.596;17.648;2023-11-21T14:29:16;7.40;92.20
22173;DHT22;11252;50.596;17.648;2023-11-21T14:31:47;7.30;92.20
22173;DHT22;11252;50.596;17.648;2023-11-21T14:34:14;7.30;92.20
22173;DHT22;11252;50.596;17.648;2023-11-21T14:36:47;7.30;92.20
22173;DHT22;11252;50.596;17.648;2023-11-21T14:39:14;7.30;92.20
22173;DHT22;11252;50.596;17.648;2023-11-21T14:41:53;7.20;92.20
22173;DHT22;11252;50.596;17.648;2023-11-21T14:44:22;7.10;92.20
22173;DHT22;11252;50.596;17.648;2023-11-21T14:46:53;7.00;92.20
22173;DHT22;11252;50.596;17.648;2023-11-21T14:49:24;7.00;92.20
22173;DHT22;11252;50.596;17.648;2023-11-21T14:51:55;6.90;92.20
22173;DHT22;11252;50.596;17.648;2023-11-21T14:54:35;6.90;92.20
22173;DHT22;11252;50.596;17.648;2023-11-21T14:57:10;6.90;92.20
22173;DHT22;11252;50.596;17.648;2023-11-21T14:59:48;6.90;92.20
22173;DHT22;11252;50.596;17.648;2023-11-21T15:02:19;6.80;92.20
22173;DHT22;11252;50.596;17.648;2023-11-21T15:05:11;6.90;92.20
22173;DHT22;11252;50.596;17.648;2023-11-21T15:07:44;6.80;92.20
22173;DHT22;11252;50.596;17.648;2023-11-21T15:10:12;6.70;92.20
22173;DHT22;11252;50.596;17.648;2023-11-21T15:12:43;6.60;92.20
22173;DHT22;11252;50.596;17.648;2023-11-21T15:15:11;6.50;92.20
22173;DHT22;11252;50.596;17.648;2023-11-21T15:17:41;6.40;92.20
22173;DHT22;11252;50.596;17.648;2023-11-21T15:20:10;6.40;92.20
22173;DHT22;11252;50.596;17.648;2023-11-21T15:22:45;6.30;92.20
22173;DHT22;11252;50.596;17.648;2023-11-21T15:25:13;6.20;92.20
22173;DHT22;11252;50.596;17.648;2023-11-21T15:27:40;6.20;92.20
22173;DHT22;11252;50.596;17.648;2023-11-21T15:30:08;6.20;92.20
22173;DHT22;11252;50.596;17.648;2023-11-21T15:32:35;6.20;92.20
22173;DHT22;11252;50.596;17.648;2023-11-21T15:35:02;6.20;92.20
22173;DHT22;11252;50.596;17.648;2023-11-21T15:37:30;6.10;92.20
22173;DHT22;11252;50.596;17.648;2023-11-21T15:39:57;6.10;92.20
22173;DHT22;11252;50.596;17.648;2023-11-21T15:42:27;6.00;92.20
22173;DHT22;11252;50.596;17.648;2023-11-21T15:44:55;6.00;92.20
22173;DHT22;11252;50.596;17.648;2023-11-21T15:47:21;5.90;92.20
22173;DHT22;11252;50.596;17.648;2023-11-21T15:49:49;5.80;92.20
22173;DHT22;11252;50.596;17.648;2023-11-21T15:52:17;5.70;92.20
22173;DHT22;11252;50.596;17.648;2023-11-21T15:54:45;5.70;92.20
22173;DHT22;11252;50.596;17.648;2023-11-21T15:57:13;5.70;92.20
22173;DHT22;11252;50.596;17.648;2023-11-21T15:59:41;5.60;92.20
22173;DHT22;11252;50.596;17.648;2023-11-21T16:02:10;5.50;92.20
22173;DHT22;11252;50.596;17.648;2023-11-21T16:04:39;5.40;92.20
22173;DHT22;11252;50.596;17.648;2023-11-21T16:07:09;5.40;92.20
22173;DHT22;11252;50.596;17.648;2023-11-21T16:09:37;5.30;92.20
22173;DHT22;11252;50.596;17.648;2023-11-21T16:12:06;5.30;92.20
22173;DHT22;11252;50.596;17.648;2023-11-21T16:14:35;5.20;92.20
22173;DHT22;11252;50.596;17.648;2023-11-21T16:17:03;5.20;92.20
22173;DHT22;11252;50.596;17.648;2023-11-21T16:19:30;5.10;92.20
22173;DHT22;11252;50.596;17.648;2023-11-21T16:21:58;5.10;92.20
22173;DHT22;11252;50.596;17.648;2023-11-21T16:24:26;5.00;92.20
22173;DHT22;11252;50.596;17.648;2023-11-21T16:26:54;4.90;92.20
22173;DHT22;11252;50.596;17.648;2023-11-21T16:29:25;4.90;92.20